createdAt,value
2022-12-15T01:27:22.328Z,-4.60
2022-12-15T01:29:50.750Z,-4.70
2022-12-15T01:32:19.181Z,-4.60
2022-12-15T01:34:47.648Z,-4.70
2022-12-15T01:37:16.178Z,-4.70
2022-12-15T01:40:01.983Z,-4.70
2022-12-15T01:42:32.207Z,-4.70
2022-12-15T01:45:42.270Z,-4.70
2022-12-15T01:48:13.686Z,-4.70
2022-12-15T01:50:47.711Z,-4.70
2022-12-15T01:53:16.698Z,-4.70
2022-12-15T01:55:47.969Z,-4.70
2022-12-15T01:58:21.564Z,-4.70
2022-12-15T02:00:50.587Z,-4.80
2022-12-15T02:03:19.900Z,-4.70
2022-12-15T02:05:48.625Z,-4.70
2022-12-15T02:08:17.328Z,-4.70
2022-12-15T02:11:06.394Z,-4.70
2022-12-15T02:13:49.749Z,-4.70
2022-12-15T02:16:24.717Z,-4.80
2022-12-15T02:19:00.962Z,-4.80
2022-12-15T02:21:34.939Z,-4.80
2022-12-15T02:24:31.625Z,-4.80
2022-12-15T02:27:35.308Z,-4.70
2022-12-15T02:30:36.683Z,-4.70
2022-12-15T02:33:11.377Z,-4.70
2022-12-15T02:35:53.708Z,-4.70
2022-12-15T02:38:33.488Z,-4.70
2022-12-15T02:41:03.413Z,-4.60
2022-12-15T02:43:35.294Z,-4.60
2022-12-15T02:46:18.838Z,-4.60
2022-12-15T02:49:01.408Z,-4.60
2022-12-15T02:51:40.534Z,-4.50
2022-12-15T02:54:27.100Z,-4.50
2022-12-15T02:57:05.963Z,-4.50
2022-12-15T02:59:42.156Z,-4.50
2022-12-15T03:02:14.745Z,-4.50
2022-12-15T03:04:45.471Z,-4.50
2022-12-15T03:07:15.152Z,-4.60
2022-12-15T03:09:43.688Z,-4.60
2022-12-15T03:12:12.093Z,-4.60
2022-12-15T03:14:40.705Z,-4.60
2022-12-15T03:17:09.349Z,-4.60
2022-12-15T03:19:39.209Z,-4.70
2022-12-15T03:22:07.854Z,-4.70
2022-12-15T03:24:36.425Z,-4.70
2022-12-15T03:27:05.143Z,-4.70
2022-12-15T03:29:33.650Z,-4.70
2022-12-15T03:32:02.245Z,-4.70
2022-12-15T03:34:30.733Z,-4.60
2022-12-15T03:37:01.013Z,-4.60
2022-12-15T03:39:29.424Z,-4.50
2022-12-15T03:41:58.050Z,-4.50
2022-12-15T03:44:26.472Z,-4.50
2022-12-15T03:47:01.361Z,-4.50
2022-12-15T03:49:31.613Z,-4.50
2022-12-15T03:52:01.435Z,-4.50
2022-12-15T03:54:29.855Z,-4.50
2022-12-15T03:56:58.291Z,-4.50
2022-12-15T03:59:26.846Z,-4.60
2022-12-15T04:01:55.407Z,-4.60
2022-12-15T04:04:23.920Z,-4.60
2022-12-15T04:06:52.331Z,-4.60
2022-12-15T04:09:22.206Z,-4.60
2022-12-15T04:11:50.676Z,-4.70
2022-12-15T04:14:19.103Z,-4.70
2022-12-15T04:16:47.651Z,-4.70
2022-12-15T04:19:33.445Z,-4.70
2022-12-15T04:22:04.581Z,-4.70
2022-12-15T04:24:52.063Z,-4.70
2022-12-15T04:27:37.974Z,-4.70
2022-12-15T04:30:25.049Z,-4.70
2022-12-15T04:33:11.380Z,-4.70
2022-12-15T04:35:57.193Z,-4.70
2022-12-15T04:38:49.964Z,-4.70
2022-12-15T04:41:39.799Z,-4.70
2022-12-15T04:44:26.468Z,-4.70
2022-12-15T04:47:12.733Z,-4.80
2022-12-15T04:49:58.908Z,-4.80
2022-12-15T04:52:46.138Z,-4.80
2022-12-15T04:55:31.851Z,-4.80
2022-12-15T04:58:23.623Z,-4.80
2022-12-15T05:01:09.996Z,-4.90
2022-12-15T05:03:56.128Z,-4.90
2022-12-15T05:06:42.243Z,-4.90
2022-12-15T05:09:28.164Z,-4.90
2022-12-15T05:12:14.029Z,-4.80
2022-12-15T05:15:01.554Z,-4.80
2022-12-15T05:17:47.891Z,-4.70
2022-12-15T05:20:33.834Z,-4.70
2022-12-15T05:23:19.940Z,-4.60
2022-12-15T05:26:05.934Z,-4.60
2022-12-15T05:28:51.979Z,-4.50
2022-12-15T05:31:39.225Z,-4.60
2022-12-15T05:34:08.158Z,-4.60
2022-12-15T05:36:36.560Z,-4.60
2022-12-15T05:39:05.351Z,-4.60
2022-12-15T05:41:34.122Z,-4.60
2022-12-15T05:44:02.661Z,-4.70
2022-12-15T05:46:32.546Z,-4.70
2022-12-15T05:49:03.320Z,-4.70
2022-12-15T05:51:32.167Z,-4.70
2022-12-15T05:54:00.646Z,-4.70
2022-12-15T05:56:29.632Z,-4.60
2022-12-15T05:58:58.302Z,-4.60
2022-12-15T06:01:27.589Z,-4.60
2022-12-15T06:03:57.458Z,-4.60
2022-12-15T06:06:26.430Z,-4.60
2022-12-15T06:08:55.091Z,-4.60
2022-12-15T06:11:23.747Z,-4.70
2022-12-15T06:13:52.354Z,-4.60
2022-12-15T06:16:22.586Z,-4.60
2022-12-15T06:18:54.126Z,-4.70
2022-12-15T06:21:25.682Z,-4.70
2022-12-15T06:23:54.762Z,-4.70
2022-12-15T06:26:25.400Z,-4.70
2022-12-15T06:28:55.531Z,-4.70
2022-12-15T06:31:25.521Z,-4.70
2022-12-15T06:34:01.293Z,-4.80
2022-12-15T06:36:31.862Z,-4.80
2022-12-15T06:39:00.971Z,-4.80
2022-12-15T06:41:30.843Z,-4.80
2022-12-15T06:44:00.495Z,-4.80
2022-12-15T06:46:30.859Z,-4.80
2022-12-15T06:49:00.018Z,-4.80
2022-12-15T06:51:29.916Z,-4.90
2022-12-15T06:54:00.336Z,-4.90
2022-12-15T06:56:33.902Z,-4.90
2022-12-15T06:59:04.432Z,-4.90
2022-12-15T07:01:33.509Z,-4.90
2022-12-15T07:04:04.697Z,-5.00
2022-12-15T07:06:36.439Z,-5.00
2022-12-15T07:09:10.455Z,-5.00
2022-12-15T07:11:38.968Z,-5.00
2022-12-15T07:14:07.526Z,-5.10
2022-12-15T07:16:36.021Z,-5.00
2022-12-15T07:19:04.606Z,-5.00
2022-12-15T07:21:33.573Z,-5.00
2022-12-15T07:24:02.768Z,-5.00
2022-12-15T07:26:32.942Z,-4.90
2022-12-15T07:29:01.367Z,-4.80
2022-12-15T07:31:31.076Z,-4.80
2022-12-15T07:34:00.196Z,-4.70
2022-12-15T07:36:28.791Z,-4.70
2022-12-15T07:39:01.789Z,-4.70
2022-12-15T07:41:31.955Z,-4.70
2022-12-15T07:44:00.392Z,-4.70
2022-12-15T07:46:29.124Z,-4.70
2022-12-15T07:48:57.753Z,-4.70
2022-12-15T07:51:27.589Z,-4.60
2022-12-15T07:53:56.012Z,-4.60
2022-12-15T07:56:24.567Z,-4.60
2022-12-15T07:58:54.471Z,-4.60
2022-12-15T08:01:23.033Z,-4.60
2022-12-15T08:03:51.702Z,-4.50
2022-12-15T08:06:20.494Z,-4.50
2022-12-15T08:08:50.638Z,-4.40
2022-12-15T08:11:22.915Z,-4.40
2022-12-15T08:14:13.524Z,-4.50
2022-12-15T08:16:42.804Z,-4.30
2022-12-15T08:19:13.498Z,-4.20
2022-12-15T08:21:42.751Z,-4.00
2022-12-15T08:24:11.623Z,-4.20
2022-12-15T08:26:40.746Z,-4.20
2022-12-15T08:29:49.015Z,-4.20
2022-12-15T08:32:02.119Z,-4.10
2022-12-15T08:34:30.766Z,-4.10
2022-12-15T08:36:59.271Z,-4.10
2022-12-15T08:39:27.718Z,-4.10
2022-12-15T08:41:57.128Z,-4.00
2022-12-15T08:44:25.605Z,-3.90
2022-12-15T08:46:54.081Z,-3.80
2022-12-15T08:49:24.042Z,-3.60
2022-12-15T08:51:52.501Z,-3.70
2022-12-15T08:54:21.935Z,-3.60
2022-12-15T08:56:50.967Z,-3.50
2022-12-15T08:59:20.124Z,-3.50
2022-12-15T09:01:48.960Z,-3.40
2022-12-15T09:04:18.208Z,-3.40
2022-12-15T09:06:48.510Z,-3.40
2022-12-15T09:09:20.277Z,-3.30
2022-12-15T09:11:49.100Z,-3.20
2022-12-15T09:14:22.740Z,-3.20
2022-12-15T09:16:55.805Z,-3.10
2022-12-15T09:19:25.314Z,-3.00
2022-12-15T09:21:55.730Z,-2.90
2022-12-15T09:24:34.006Z,-2.80
2022-12-15T09:27:04.209Z,-2.80
2022-12-15T09:29:33.030Z,-2.60
2022-12-15T09:32:01.505Z,-2.60
2022-12-15T09:34:30.286Z,-2.50
2022-12-15T09:37:00.126Z,-2.40
2022-12-15T09:39:28.758Z,-2.40
2022-12-15T09:42:00.907Z,-2.30
2022-12-15T09:44:32.498Z,-2.30
2022-12-15T09:47:07.325Z,-2.20
2022-12-15T09:49:57.362Z,-2.20
2022-12-15T09:52:31.029Z,-2.10
2022-12-15T09:55:01.686Z,-2.10
2022-12-15T09:57:39.766Z,-2.10
2022-12-15T10:00:16.942Z,-2.00
2022-12-15T10:03:10.184Z,-1.90
2022-12-15T10:06:16.267Z,-1.90
2022-12-15T10:08:57.007Z,-1.80
2022-12-15T10:11:50.176Z,-1.80
2022-12-15T10:14:28.151Z,-1.70
2022-12-15T10:17:06.800Z,-1.70
2022-12-15T10:19:41.354Z,-1.60
2022-12-15T10:22:14.343Z,-1.60
2022-12-15T10:25:09.092Z,-1.50
2022-12-15T10:27:54.486Z,-1.50
2022-12-15T10:30:23.229Z,-1.40
2022-12-15T10:32:58.285Z,-1.30
2022-12-15T10:35:30.025Z,-1.20
2022-12-15T10:38:00.554Z,-1.20
2022-12-15T10:43:29.387Z,-1.10
2022-12-15T10:46:03.152Z,-1.00
2022-12-15T10:48:31.672Z,-0.90
2022-12-15T10:51:16.154Z,-0.80
2022-12-15T10:53:50.338Z,-0.70
2022-12-15T10:56:27.284Z,-0.60
2022-12-15T10:59:03.507Z,-0.60
2022-12-15T11:01:35.534Z,-0.50
2022-12-15T11:04:04.496Z,-0.40
2022-12-15T11:06:36.922Z,-0.20
2022-12-15T11:09:28.120Z,-0.10
2022-12-15T11:12:13.466Z,0.00
2022-12-15T11:14:47.541Z,0.20
2022-12-15T11:17:18.330Z,0.30
2022-12-15T11:19:58.217Z,0.30
2022-12-15T11:22:41.344Z,0.30
2022-12-15T11:25:24.780Z,0.30
2022-12-15T11:27:57.931Z,0.30
2022-12-15T11:30:34.800Z,0.30
2022-12-15T11:33:04.134Z,0.30
2022-12-15T11:35:43.453Z,0.30
2022-12-15T11:38:20.963Z,0.40
2022-12-15T11:40:50.679Z,0.50
2022-12-15T11:43:31.851Z,0.60
2022-12-15T11:46:19.155Z,0.70
2022-12-15T11:49:16.007Z,0.70
2022-12-15T11:51:51.229Z,0.80
2022-12-15T11:54:26.454Z,0.80
2022-12-15T11:57:00.706Z,0.80
2022-12-15T11:59:47.503Z,0.80
2022-12-15T12:02:49.243Z,0.80
2022-12-15T12:05:40.381Z,0.90
2022-12-15T12:08:25.682Z,1.00
2022-12-15T12:11:00.997Z,1.20
2022-12-15T12:13:36.180Z,1.40
2022-12-15T12:16:18.039Z,1.60
2022-12-15T12:18:53.727Z,1.80
2022-12-15T12:21:27.751Z,1.90
2022-12-15T12:24:01.679Z,2.10
2022-12-15T12:26:35.949Z,2.20
2022-12-15T12:29:13.043Z,2.30
2022-12-15T12:31:51.164Z,2.40
2022-12-15T12:34:27.988Z,2.40
2022-12-15T12:37:03.670Z,2.40
2022-12-15T12:39:33.125Z,2.40
2022-12-15T12:42:09.223Z,2.40
2022-12-15T12:44:39.422Z,2.40
2022-12-15T12:47:13.166Z,2.40
2022-12-15T12:49:46.848Z,2.50
2022-12-15T12:52:23.575Z,2.50
2022-12-15T12:55:00.924Z,2.60
2022-12-15T12:57:40.562Z,2.50
2022-12-15T13:00:21.611Z,2.60
2022-12-15T13:03:20.369Z,2.60
2022-12-15T13:05:52.123Z,2.60
2022-12-15T13:08:45.452Z,2.60
2022-12-15T13:11:58.987Z,2.50
2022-12-15T13:14:46.690Z,2.50
2022-12-15T13:17:27.034Z,2.50
2022-12-15T13:20:17.562Z,2.50
2022-12-15T13:22:50.373Z,2.60
2022-12-15T13:25:41.470Z,2.60
2022-12-15T13:28:27.066Z,2.60
2022-12-15T13:31:41.835Z,2.60
2022-12-15T13:34:22.953Z,2.50
2022-12-15T13:36:59.617Z,2.50
2022-12-15T13:39:58.309Z,2.50
2022-12-15T13:42:45.435Z,2.40
2022-12-15T13:45:40.659Z,2.40
2022-12-15T13:48:19.387Z,2.40
2022-12-15T13:50:54.235Z,2.30
2022-12-15T13:53:25.917Z,2.20
2022-12-15T13:56:06.657Z,2.20
2022-12-15T13:58:41.921Z,2.20
2022-12-15T14:01:23.961Z,2.30
2022-12-15T14:04:12.678Z,2.30
2022-12-15T14:06:47.579Z,2.40
2022-12-15T14:09:24.113Z,2.40
2022-12-15T14:11:54.560Z,2.50
2022-12-15T14:14:25.907Z,2.60
2022-12-15T14:16:58.792Z,2.50
2022-12-15T14:19:32.039Z,2.50
2022-12-15T14:22:03.475Z,2.40
2022-12-15T14:24:39.055Z,2.30
2022-12-15T14:27:09.610Z,2.20
2022-12-15T14:29:38.142Z,2.10
2022-12-15T14:32:07.102Z,2.10
2022-12-15T14:34:41.131Z,2.00
2022-12-15T14:37:16.074Z,1.90
2022-12-15T14:39:47.675Z,1.80
2022-12-15T14:42:24.258Z,1.80
2022-12-15T14:44:57.719Z,1.70
2022-12-15T14:47:30.041Z,1.60
2022-12-15T14:50:01.521Z,1.60
2022-12-15T14:52:33.798Z,1.50
2022-12-15T14:55:04.165Z,1.50
2022-12-15T14:57:44.434Z,1.40
2022-12-15T15:00:28.588Z,1.30
2022-12-15T15:06:00.347Z,1.20
2022-12-15T15:08:31.716Z,1.10
2022-12-15T15:11:02.750Z,1.00
2022-12-15T15:13:40.056Z,0.90
2022-12-15T15:16:15.524Z,0.90
2022-12-15T15:18:44.809Z,0.80
2022-12-15T15:21:18.670Z,0.80
2022-12-15T15:23:59.480Z,0.60
2022-12-15T15:26:28.683Z,0.60
2022-12-15T15:28:58.770Z,0.50
2022-12-15T15:31:41.245Z,0.40
2022-12-15T15:34:11.328Z,0.40
2022-12-15T15:36:40.849Z,0.30
2022-12-15T15:39:16.070Z,0.30
2022-12-15T15:41:44.787Z,0.30
2022-12-15T15:44:15.789Z,0.30
2022-12-15T15:46:49.410Z,0.30
2022-12-15T15:49:21.701Z,0.30
2022-12-15T15:51:50.843Z,0.20
2022-12-15T15:54:24.230Z,0.20
2022-12-15T15:56:53.583Z,0.30
2022-12-15T16:03:17.580Z,0.20
2022-12-15T17:28:42.418Z,-1.20
2022-12-15T17:39:32.191Z,-1.10
2022-12-15T18:19:35.143Z,-0.60
2022-12-15T18:23:10.315Z,-0.50
2022-12-15T18:31:46.997Z,-0.40
2022-12-15T22:12:45.770Z,-0.70
2022-12-15T22:15:16.123Z,-0.80
2022-12-15T22:17:47.792Z,-0.80
2022-12-15T22:20:18.151Z,-0.80
2022-12-15T22:22:47.119Z,-0.80
2022-12-15T22:25:18.930Z,-0.90
2022-12-15T22:27:47.778Z,-0.90
2022-12-15T22:30:18.637Z,-0.90
2022-12-15T22:32:47.943Z,-0.90
2022-12-15T22:35:17.828Z,-0.90
2022-12-15T22:37:47.327Z,-0.80
2022-12-15T22:40:17.671Z,-0.80
2022-12-15T22:42:50.434Z,-0.80
2022-12-15T22:45:26.487Z,-0.70
2022-12-15T22:47:55.768Z,-0.60
2022-12-15T22:50:28.382Z,-0.50
2022-12-15T22:53:08.346Z,-0.50
2022-12-15T22:55:39.540Z,-0.40
2022-12-15T22:58:10.981Z,-0.30
2022-12-15T23:00:40.949Z,-0.30
2022-12-15T23:03:20.795Z,-0.30
2022-12-15T23:06:20.291Z,-0.30
2022-12-15T23:08:56.273Z,-0.40
2022-12-15T23:11:37.390Z,-0.40
2022-12-15T23:14:06.777Z,-0.40
2022-12-15T23:16:36.154Z,-0.50
2022-12-15T23:19:07.785Z,-0.60
2022-12-15T23:21:37.438Z,-0.70
2022-12-15T23:24:06.290Z,-0.70
2022-12-15T23:26:36.473Z,-0.80
2022-12-15T23:29:05.093Z,-0.80
2022-12-15T23:31:34.182Z,-0.90
2022-12-15T23:34:02.720Z,-0.90
2022-12-15T23:36:33.115Z,-0.90
2022-12-15T23:39:01.917Z,-0.80
2022-12-15T23:41:30.467Z,-0.80
2022-12-15T23:44:00.509Z,-0.80
2022-12-15T23:46:29.049Z,-0.90
2022-12-15T23:49:00.045Z,-0.90
2022-12-15T23:51:28.594Z,-0.90
2022-12-15T23:53:57.051Z,-1.00
2022-12-15T23:56:25.918Z,-1.00
2022-12-15T23:58:56.976Z,-1.10
